New York, NY (10171)

8:54 AM EDT on August 22, 2014 (GMT -0400)
Midtown East | Change Station
CLOSE
Current Station
Personal Weather Station
Location: New York, NY
Elevation: 250 ft
Nearby Weather Stations

Elev 250 ft 40.75 °N, 73.98 °W | Updated 9 minutes ago

Mostly Cloudy
Mostly Cloudy
72.9 °F
Feels Like 75 °F
N
-
Wind Variable Wind from North

Today
High -- | Low -- °F
--% Chance of Precip.
Yesterday
High -- | Low -- °F
Precip. -- in
6:13 AM 7:43 PM
Waning Crescent, 8% visible
Pressure 30.04 in
Visibility 10.0 miles
Clouds Scattered Clouds 1600 ft
Mostly Cloudy 3000 ft
Mostly Cloudy 3600 ft
Heat Index 75 °F
Dew Point 64 °F
Humidity 73%
Rainfall -999.00 in
Snow Depth Not available.
UV 1 out of 12
Pollen 5.90 out of 12
Air Quality Not available.
Flu Activity Not available.
METAR KNYC 221251Z AUTO VRB03KT 10SM SCT016 BKN030 BKN036 21/18 A3006 RMK AO2 SLP170 T02060178 $

More Conditions Fewer Conditions

Pressure 30.04 in
Visibility 10.0 miles
Clouds Scattered Clouds 1600 ft
Mostly Cloudy 3000 ft
Mostly Cloudy 3600 ft
Heat Index 75 °F
Dew Point 64 °F
Humidity 73%
Rainfall -999.00 in
Snow Depth Not available.
UV 1 out of 12
Pollen 5.90 out of 12
Air Quality Not available.
Flu Activity Not available.
METAR KNYC 221251Z AUTO VRB03KT 10SM SCT016 BKN030 BKN036 21/18 A3006 RMK AO2 SLP170 T02060178 $

More Conditions Fewer Conditions

10-Day Weather Forecast

Almanac

Astronomy

Aug. 22, 2014 Rise Set
Actual Time 6:13 AM EDT 7:43 PM EDT
Civil Twilight 5:44 AM EDT 8:12 PM EDT
Nautical Twilight 5:09 AM EDT 8:47 PM EDT
Astronomical Twilight 4:32 AM EDT 9:23 PM EDT
Moon 3:32 AM EDT 5:50 PM EDT
Length of Visible Light 14h 28m
Length of Day
13h 30m
Tomorrow will be 2m 29s shorter.
Waning Crescent, 8% of the Moon is Illuminated
Today
Waning Crescent
Aug 25
New
Sep 2
First Quarter
Sep 8
Full
Sep 15
Last Quarter

Today's Extremes

State Highs State Lows

Community

WunderPhotos

Upload Photos

1,746,158 photos uploaded!

WunderBlogs® & News

Nearby

Air Quality

  Air Quality AQ Index Pollutant
Friday Good
PM2.5
Friday Good
OZONE

Snow Depth

Station Depth Elevation
No new snow has been reported.

Earthquake Activity

City Distance Mag. Time & Date
No recent earthquake activity has been reported nearby.
Minimum magnitude displayed is 2.5.

Coastal Water Temperatures

Place Temperature
Sandy Hook, NJ 73.9 °F
The Battery, NY 73.0 °F
Bergen Point West Reach, NJ 73.9 °F

Nearby Weather Stations